createdAt,value
2017-12-26T00:00:26.048Z,99.99
2017-12-26T00:01:26.147Z,99.99
2017-12-26T00:02:26.524Z,99.99
2017-12-26T00:03:26.364Z,99.99
2017-12-26T00:04:27.067Z,99.99
2017-12-26T00:05:27.062Z,99.99
2017-12-26T00:06:27.482Z,99.99
2017-12-26T00:07:27.330Z,99.99
2017-12-26T00:08:27.888Z,99.99
2017-12-26T00:09:27.745Z,99.99
2017-12-26T00:10:28.054Z,99.99
2017-12-26T00:11:28.060Z,99.99
2017-12-26T00:12:28.443Z,99.99
2017-12-26T00:13:28.209Z,99.99
2017-12-26T00:14:28.353Z,99.99
2017-12-26T00:15:28.768Z,99.99
2017-12-26T00:16:28.522Z,99.99
2017-12-26T00:17:28.782Z,99.99
2017-12-26T00:18:28.790Z,99.99
2017-12-26T00:19:29.192Z,99.99
2017-12-26T00:20:29.655Z,99.99
2017-12-26T00:21:29.795Z,99.99
2017-12-26T00:22:29.980Z,99.99
2017-12-26T00:23:30.263Z,99.99
2017-12-26T00:24:30.036Z,99.99
2017-12-26T00:25:30.305Z,99.99
2017-12-26T00:26:30.180Z,99.99
2017-12-26T00:27:30.655Z,99.99
2017-12-26T00:28:30.687Z,99.99
2017-12-26T00:29:30.611Z,99.99
2017-12-26T00:30:31.048Z,99.99
2017-12-26T00:31:31.010Z,99.99
2017-12-26T00:32:30.809Z,99.99
2017-12-26T00:33:30.726Z,99.99
2017-12-26T00:34:30.746Z,99.99
2017-12-26T00:35:31.454Z,99.99
2017-12-26T00:36:31.426Z,99.99
2017-12-26T00:37:31.754Z,99.99
2017-12-26T00:38:31.681Z,99.99
2017-12-26T00:39:32.105Z,99.99
2017-12-26T00:40:32.233Z,99.99
2017-12-26T00:41:32.118Z,99.99
2017-12-26T00:42:32.586Z,99.99
2017-12-26T00:43:32.630Z,99.99
2017-12-26T00:44:32.795Z,99.99
2017-12-26T00:45:32.811Z,99.99
2017-12-26T00:46:32.836Z,99.99
2017-12-26T00:47:33.311Z,99.99
2017-12-26T00:48:33.192Z,99.99
2017-12-26T00:49:33.866Z,99.99
2017-12-26T00:50:33.847Z,99.99
2017-12-26T00:51:33.891Z,99.99
2017-12-26T00:52:34.428Z,99.99
2017-12-26T00:53:34.607Z,99.99
2017-12-26T00:54:34.013Z,99.99
2017-12-26T00:55:34.318Z,99.99
2017-12-26T00:56:34.484Z,99.99
2017-12-26T00:57:35.191Z,99.99
2017-12-26T00:58:35.313Z,99.99
2017-12-26T00:59:35.472Z,99.99
2017-12-26T01:00:35.581Z,99.99
2017-12-26T01:01:35.956Z,99.99
2017-12-26T01:02:36.001Z,99.99
2017-12-26T01:03:36.153Z,99.99
2017-12-26T01:04:36.415Z,99.99
2017-12-26T01:05:36.165Z,99.99
2017-12-26T01:06:36.498Z,99.99
2017-12-26T01:07:36.661Z,99.99
2017-12-26T01:08:36.668Z,99.99
2017-12-26T01:09:36.660Z,99.99
2017-12-26T01:10:36.697Z,99.99
2017-12-26T01:11:36.582Z,99.99
2017-12-26T01:12:37.190Z,99.99
2017-12-26T01:13:37.361Z,99.99
2017-12-26T01:14:37.489Z,99.99
2017-12-26T01:15:37.252Z,99.99
2017-12-26T01:16:37.449Z,99.99
2017-12-26T01:17:37.844Z,99.99
2017-12-26T01:18:37.931Z,99.99
2017-12-26T01:19:38.209Z,99.99
2017-12-26T01:20:38.592Z,99.99
2017-12-26T01:21:38.699Z,99.99
2017-12-26T01:22:38.705Z,99.99
2017-12-26T01:23:39.048Z,99.99
2017-12-26T01:24:39.294Z,99.99
2017-12-26T01:25:39.228Z,99.99
2017-12-26T01:26:39.561Z,99.99
2017-12-26T01:27:39.651Z,99.99
2017-12-26T01:28:39.670Z,99.99
2017-12-26T01:29:39.744Z,99.99
2017-12-26T01:30:40.043Z,99.99
2017-12-26T01:31:40.091Z,99.99
2017-12-26T01:32:40.261Z,99.99
2017-12-26T01:33:40.254Z,99.99
2017-12-26T01:34:40.463Z,99.99
2017-12-26T01:35:40.468Z,99.99
2017-12-26T01:36:41.132Z,99.99
2017-12-26T01:37:41.025Z,99.99
2017-12-26T01:38:40.782Z,99.99
2017-12-26T01:39:41.130Z,99.99
2017-12-26T01:40:41.263Z,99.99
2017-12-26T01:41:41.326Z,99.99
2017-12-26T01:42:41.230Z,99.99
2017-12-26T01:43:41.727Z,99.99
2017-12-26T01:44:41.934Z,99.99
2017-12-26T01:45:41.704Z,99.99
2017-12-26T01:46:41.724Z,99.99
2017-12-26T01:47:42.280Z,99.99
2017-12-26T01:48:42.217Z,99.99
2017-12-26T01:49:42.332Z,99.99
2017-12-26T01:50:42.720Z,99.99
2017-12-26T01:51:43.092Z,99.99
2017-12-26T01:52:43.490Z,99.99
2017-12-26T01:53:43.396Z,99.99
2017-12-26T01:54:43.967Z,99.99
2017-12-26T01:55:44.009Z,99.99
2017-12-26T01:56:43.756Z,99.99
2017-12-26T01:57:44.038Z,99.99
2017-12-26T01:58:43.922Z,99.99
2017-12-26T01:59:44.374Z,99.99
2017-12-26T02:00:44.422Z,99.99
2017-12-26T02:01:44.175Z,99.99
2017-12-26T02:02:44.977Z,99.99
2017-12-26T02:03:44.997Z,99.99
2017-12-26T02:04:44.908Z,99.99
2017-12-26T02:05:44.935Z,99.99
2017-12-26T02:06:45.310Z,99.99
2017-12-26T02:07:45.343Z,99.99
2017-12-26T02:08:45.434Z,99.99
2017-12-26T02:09:45.830Z,99.99
2017-12-26T02:10:45.617Z,99.99
2017-12-26T02:11:45.809Z,99.99
2017-12-26T02:12:46.492Z,99.99
2017-12-26T02:13:46.495Z,99.99
2017-12-26T02:14:46.886Z,99.99
2017-12-26T02:15:46.869Z,99.99
2017-12-26T02:16:46.909Z,99.99
2017-12-26T02:17:47.305Z,99.99
2017-12-26T02:18:47.934Z,99.99
2017-12-26T02:19:48.658Z,99.99
2017-12-26T02:20:48.106Z,99.99
2017-12-26T02:21:48.730Z,99.99
2017-12-26T02:22:48.492Z,99.99
2017-12-26T02:23:48.741Z,99.99
2017-12-26T02:24:48.791Z,99.99
2017-12-26T02:25:48.906Z,99.99
2017-12-26T02:26:49.304Z,99.99
2017-12-26T02:27:49.517Z,99.99
2017-12-26T02:28:49.644Z,99.99
2017-12-26T02:29:50.064Z,99.99
2017-12-26T02:30:50.219Z,99.99
2017-12-26T02:31:50.225Z,99.99
2017-12-26T02:32:50.081Z,99.99
2017-12-26T02:33:50.648Z,99.99
2017-12-26T02:34:50.803Z,99.99
2017-12-26T02:35:50.895Z,99.99
2017-12-26T02:36:51.190Z,99.99
2017-12-26T02:37:51.524Z,99.99
2017-12-26T02:38:51.669Z,99.99
2017-12-26T02:39:51.721Z,99.99
2017-12-26T02:40:52.304Z,99.99
2017-12-26T02:41:52.348Z,99.99
2017-12-26T02:42:52.233Z,99.99
2017-12-26T02:43:52.534Z,99.99
2017-12-26T02:44:53.050Z,99.99
2017-12-26T02:45:52.929Z,99.99
2017-12-26T02:46:53.257Z,99.99
2017-12-26T02:47:53.251Z,99.99
2017-12-26T02:48:53.294Z,99.99
2017-12-26T02:49:53.074Z,99.99
2017-12-26T02:50:53.363Z,99.99
2017-12-26T02:51:53.079Z,99.99
2017-12-26T02:52:53.783Z,99.99
2017-12-26T02:53:53.914Z,99.99
2017-12-26T02:54:54.382Z,99.99
2017-12-26T02:55:54.794Z,99.99
2017-12-26T02:56:54.533Z,99.99
2017-12-26T02:57:54.562Z,99.99
2017-12-26T02:58:55.067Z,99.99
2017-12-26T02:59:54.674Z,99.99
2017-12-26T03:00:55.070Z,99.99
2017-12-26T03:01:55.071Z,99.99
2017-12-26T03:02:54.832Z,99.99
2017-12-26T03:03:55.136Z,99.99
2017-12-26T03:04:55.339Z,99.99
2017-12-26T03:05:55.176Z,99.99
2017-12-26T03:06:55.081Z,99.99
2017-12-26T03:07:55.305Z,99.99
2017-12-26T03:08:55.542Z,99.99
2017-12-26T03:09:55.577Z,99.99
2017-12-26T03:10:55.593Z,99.99
2017-12-26T03:11:56.031Z,99.99
2017-12-26T03:12:56.505Z,99.99
2017-12-26T03:13:56.471Z,99.99
2017-12-26T03:14:56.913Z,99.99
2017-12-26T03:15:56.941Z,99.99
2017-12-26T03:16:56.959Z,99.99
2017-12-26T03:17:57.080Z,99.99
2017-12-26T03:18:56.716Z,99.99
2017-12-26T03:19:56.764Z,99.99
2017-12-26T03:20:57.205Z,99.99
2017-12-26T03:21:57.245Z,99.99
2017-12-26T03:22:57.263Z,99.99
2017-12-26T03:23:57.761Z,99.99
2017-12-26T03:24:57.836Z,99.99
2017-12-26T03:25:57.727Z,99.99
2017-12-26T03:26:57.710Z,99.99
2017-12-26T03:27:58.178Z,99.99
2017-12-26T03:28:57.743Z,99.99
2017-12-26T03:29:57.582Z,99.99
2017-12-26T03:30:57.800Z,99.99
2017-12-26T03:31:58.037Z,99.99
2017-12-26T03:32:58.203Z,99.99
2017-12-26T03:33:58.273Z,99.99
2017-12-26T03:34:58.808Z,99.99
2017-12-26T03:35:59.067Z,99.99
2017-12-26T03:36:58.937Z,99.99
2017-12-26T03:37:59.482Z,99.99
2017-12-26T03:38:59.847Z,99.99
2017-12-26T03:39:59.784Z,99.99
2017-12-26T03:40:59.687Z,99.99
2017-12-26T03:41:59.582Z,99.99
2017-12-26T03:42:59.655Z,99.99
2017-12-26T03:43:59.980Z,99.99
2017-12-26T03:45:00.513Z,99.99
2017-12-26T03:46:00.335Z,99.99
2017-12-26T03:47:00.125Z,99.99
2017-12-26T03:48:00.354Z,99.99
2017-12-26T03:49:00.845Z,99.99
2017-12-26T03:50:01.043Z,99.99
2017-12-26T03:51:00.454Z,99.99
2017-12-26T03:52:01.288Z,99.99
2017-12-26T03:53:00.706Z,99.99
2017-12-26T03:54:00.625Z,99.99
2017-12-26T03:55:00.668Z,99.99
2017-12-26T03:56:00.644Z,99.99
2017-12-26T03:57:00.271Z,99.99
2017-12-26T03:58:00.310Z,99.99
2017-12-26T03:59:00.920Z,99.99
2017-12-26T04:00:00.855Z,99.99
2017-12-26T04:01:01.066Z,99.99
2017-12-26T04:02:02.021Z,99.99
2017-12-26T04:03:01.474Z,99.99
2017-12-26T04:04:01.828Z,99.99
2017-12-26T04:05:01.681Z,99.99
2017-12-26T04:06:01.956Z,99.99
2017-12-26T04:07:01.438Z,99.99
2017-12-26T04:08:01.302Z,99.99
2017-12-26T04:09:01.375Z,99.99
2017-12-26T04:10:01.830Z,99.99
2017-12-26T04:11:01.678Z,99.99
2017-12-26T04:12:01.726Z,99.99
2017-12-26T04:13:01.841Z,99.99
2017-12-26T04:14:01.502Z,99.99
2017-12-26T04:15:02.039Z,99.99
2017-12-26T04:16:02.280Z,99.99
2017-12-26T04:17:02.786Z,99.99
2017-12-26T04:18:02.739Z,99.99
2017-12-26T04:19:02.508Z,99.99
2017-12-26T04:20:02.137Z,99.99
2017-12-26T04:21:02.594Z,99.99
2017-12-26T04:22:02.682Z,99.99
2017-12-26T04:23:02.609Z,99.99
2017-12-26T04:24:02.708Z,99.99
2017-12-26T04:25:02.833Z,99.99
2017-12-26T04:26:02.407Z,99.99
2017-12-26T04:27:02.442Z,99.99
2017-12-26T04:28:02.720Z,99.99
2017-12-26T04:29:02.471Z,99.99
2017-12-26T04:30:02.786Z,99.99
2017-12-26T04:31:02.773Z,99.99
2017-12-26T04:32:02.802Z,99.99
2017-12-26T04:33:02.823Z,99.99
2017-12-26T04:34:03.378Z,99.99
2017-12-26T04:35:03.275Z,99.99
2017-12-26T04:36:03.050Z,99.99
2017-12-26T04:37:03.301Z,99.99
2017-12-26T04:38:03.002Z,99.99
2017-12-26T04:39:03.401Z,99.99
2017-12-26T04:40:03.569Z,99.99
2017-12-26T04:41:03.882Z,99.99
2017-12-26T04:42:04.225Z,99.99
2017-12-26T04:43:04.133Z,99.99
2017-12-26T04:44:04.265Z,99.99
2017-12-26T04:45:04.368Z,99.99
2017-12-26T04:46:04.528Z,99.99
2017-12-26T04:47:04.710Z,99.99
2017-12-26T04:48:04.670Z,99.99
2017-12-26T04:49:04.903Z,99.99
2017-12-26T04:50:05.298Z,99.99
2017-12-26T04:51:05.657Z,99.99
2017-12-26T04:52:05.663Z,99.99
2017-12-26T04:53:06.067Z,99.99
2017-12-26T04:54:06.110Z,99.99
2017-12-26T04:55:05.840Z,99.99
2017-12-26T04:56:06.500Z,99.99
2017-12-26T04:57:06.714Z,99.99
2017-12-26T04:58:06.712Z,99.99
2017-12-26T04:59:07.141Z,99.99
2017-12-26T05:00:07.432Z,99.99
2017-12-26T05:01:07.719Z,99.99
2017-12-26T05:02:07.981Z,99.99
2017-12-26T05:03:08.459Z,99.99
2017-12-26T05:04:08.468Z,99.99
2017-12-26T05:05:08.475Z,99.99
2017-12-26T05:06:08.393Z,99.99
2017-12-26T05:07:08.903Z,99.99
2017-12-26T05:08:09.309Z,99.99
2017-12-26T05:09:09.730Z,99.99
2017-12-26T05:10:09.431Z,99.99
2017-12-26T05:11:09.746Z,99.99
2017-12-26T05:12:09.769Z,99.99
2017-12-26T05:13:09.679Z,99.99
2017-12-26T05:14:10.258Z,99.99
2017-12-26T05:15:10.174Z,99.99
2017-12-26T05:16:10.847Z,99.99
2017-12-26T05:17:11.046Z,99.99
2017-12-26T05:18:10.797Z,99.99
2017-12-26T05:19:11.277Z,99.99
2017-12-26T05:20:11.573Z,99.99
2017-12-26T05:21:11.781Z,99.99
2017-12-26T05:22:12.215Z,99.99
2017-12-26T05:23:12.207Z,99.99
2017-12-26T05:24:12.081Z,99.99
2017-12-26T05:25:12.686Z,99.99
2017-12-26T05:26:12.752Z,99.99
2017-12-26T05:27:13.297Z,99.99
2017-12-26T05:28:14.210Z,99.99
2017-12-26T05:29:14.128Z,99.99
2017-12-26T05:30:13.895Z,99.99
2017-12-26T05:31:14.289Z,99.99
2017-12-26T05:32:14.685Z,99.99
2017-12-26T05:33:15.102Z,99.99
2017-12-26T05:34:15.307Z,99.99
2017-12-26T05:35:15.324Z,99.99
2017-12-26T05:36:15.688Z,99.99
2017-12-26T05:37:16.083Z,99.99
2017-12-26T05:38:16.087Z,99.99
2017-12-26T05:39:16.101Z,99.99
2017-12-26T05:40:16.122Z,99.99
2017-12-26T05:41:16.247Z,99.99
2017-12-26T05:42:16.194Z,99.99
2017-12-26T05:43:16.490Z,99.99
2017-12-26T05:44:16.265Z,99.99
2017-12-26T05:45:16.260Z,99.99
2017-12-26T05:46:16.184Z,99.99
2017-12-26T05:47:17.248Z,99.99
2017-12-26T05:48:16.784Z,99.99
2017-12-26T05:49:16.824Z,99.99
2017-12-26T05:50:17.305Z,99.99
2017-12-26T05:51:17.265Z,99.99
2017-12-26T05:52:17.303Z,99.99
2017-12-26T05:53:17.353Z,99.99
2017-12-26T05:54:17.452Z,99.99
2017-12-26T05:55:17.388Z,99.99
2017-12-26T05:56:17.431Z,99.99
2017-12-26T05:57:17.534Z,99.99
2017-12-26T05:58:17.160Z,99.99
2017-12-26T05:59:17.823Z,99.99
2017-12-26T06:00:17.624Z,99.99
2017-12-26T06:01:17.498Z,99.99
2017-12-26T06:02:17.540Z,99.99
2017-12-26T06:03:17.435Z,99.99
2017-12-26T06:04:17.892Z,99.99
2017-12-26T06:05:17.875Z,99.99
2017-12-26T06:06:18.032Z,99.99
2017-12-26T06:07:18.435Z,99.99
2017-12-26T06:08:18.867Z,99.99
2017-12-26T06:09:18.875Z,99.99
2017-12-26T06:10:19.062Z,99.99
2017-12-26T06:11:19.070Z,99.99
2017-12-26T06:12:19.492Z,99.99
2017-12-26T06:13:19.536Z,99.99
2017-12-26T06:14:19.541Z,99.99
2017-12-26T06:15:19.595Z,99.99
2017-12-26T06:16:19.788Z,99.99
2017-12-26T06:17:20.086Z,99.99
2017-12-26T06:18:20.459Z,99.99
2017-12-26T06:19:20.908Z,99.99
2017-12-26T06:20:21.086Z,99.99
2017-12-26T06:21:20.837Z,99.99
2017-12-26T06:22:21.162Z,99.99
2017-12-26T06:23:21.594Z,99.99
2017-12-26T06:24:21.633Z,99.99
2017-12-26T06:25:22.050Z,99.99
2017-12-26T06:26:22.058Z,99.99
2017-12-26T06:27:22.243Z,99.99
2017-12-26T06:28:22.435Z,99.99
2017-12-26T06:29:22.218Z,99.99
2017-12-26T06:30:22.428Z,99.99
2017-12-26T06:31:22.687Z,99.99
2017-12-26T06:32:22.737Z,99.99
2017-12-26T06:33:23.252Z,99.99
2017-12-26T06:34:23.229Z,99.99
2017-12-26T06:35:23.234Z,99.99
2017-12-26T06:36:23.737Z,99.99
2017-12-26T06:37:23.512Z,99.99
2017-12-26T06:38:23.739Z,99.99
2017-12-26T06:39:24.207Z,99.99
2017-12-26T06:40:24.345Z,99.99
2017-12-26T06:41:25.042Z,99.99
2017-12-26T06:42:25.431Z,99.99
2017-12-26T06:43:25.490Z,99.99
2017-12-26T06:44:25.987Z,99.99
2017-12-26T06:45:25.834Z,99.99
2017-12-26T06:46:26.082Z,99.99
2017-12-26T06:47:26.151Z,99.99
2017-12-26T06:48:26.025Z,99.99
2017-12-26T06:49:26.133Z,99.99
2017-12-26T06:50:25.910Z,99.99
2017-12-26T06:51:26.554Z,99.99
2017-12-26T06:52:26.478Z,99.99
2017-12-26T06:53:26.654Z,99.99
2017-12-26T06:54:26.440Z,99.99
2017-12-26T06:55:26.518Z,99.99
2017-12-26T06:56:26.463Z,99.99
2017-12-26T06:57:26.867Z,99.99
2017-12-26T06:58:26.250Z,99.99
2017-12-26T06:59:26.603Z,99.99
2017-12-26T07:00:26.547Z,99.99
2017-12-26T07:01:26.732Z,99.99
2017-12-26T07:02:27.024Z,99.99
2017-12-26T07:03:27.336Z,99.99
2017-12-26T07:04:27.342Z,99.99
2017-12-26T07:05:27.695Z,99.99
2017-12-26T07:06:27.678Z,99.99
2017-12-26T07:07:28.101Z,99.99
2017-12-26T07:08:28.151Z,99.99
2017-12-26T07:09:27.896Z,99.99
2017-12-26T07:10:28.635Z,99.99
2017-12-26T07:11:28.298Z,99.99
2017-12-26T07:12:28.466Z,99.99
2017-12-26T07:13:28.290Z,99.99
2017-12-26T07:14:28.562Z,99.99
2017-12-26T07:15:29.012Z,99.99
2017-12-26T07:16:28.446Z,99.99
2017-12-26T07:17:28.211Z,99.99
2017-12-26T07:18:28.491Z,99.99
2017-12-26T07:19:28.478Z,99.99
2017-12-26T07:20:28.532Z,99.99
2017-12-26T07:21:28.546Z,99.99
2017-12-26T07:22:28.551Z,99.99
2017-12-26T07:23:28.347Z,99.99
2017-12-26T07:24:28.905Z,99.99
2017-12-26T07:25:29.396Z,99.99
2017-12-26T07:26:29.134Z,99.99
2017-12-26T07:27:29.863Z,99.99
2017-12-26T07:28:29.785Z,99.99
2017-12-26T07:29:29.786Z,99.99
2017-12-26T07:30:29.822Z,99.99
2017-12-26T07:31:29.880Z,99.99
2017-12-26T07:32:29.862Z,99.99
2017-12-26T07:33:29.682Z,99.99
2017-12-26T07:34:29.644Z,99.99
2017-12-26T07:35:30.099Z,99.99
2017-12-26T07:36:30.022Z,99.99
2017-12-26T07:37:30.402Z,99.99
2017-12-26T07:38:30.620Z,99.99
2017-12-26T07:39:30.401Z,99.99
2017-12-26T07:40:30.401Z,99.99
2017-12-26T07:41:30.132Z,99.99
2017-12-26T07:42:30.421Z,99.99
2017-12-26T07:43:30.415Z,99.99
2017-12-26T07:44:30.900Z,99.99
2017-12-26T07:45:30.845Z,99.99
2017-12-26T07:46:31.038Z,99.99
2017-12-26T07:47:31.104Z,99.99
2017-12-26T07:48:31.082Z,99.99
2017-12-26T07:49:31.868Z,99.99
2017-12-26T07:50:31.829Z,99.99
2017-12-26T07:51:32.131Z,99.99
2017-12-26T07:52:32.071Z,99.99
2017-12-26T07:53:32.022Z,99.99
2017-12-26T07:54:32.083Z,99.99
2017-12-26T07:55:32.390Z,99.99
2017-12-26T07:56:31.807Z,99.99
2017-12-26T07:57:33.475Z,99.99
2017-12-26T07:58:32.776Z,99.99
2017-12-26T07:59:33.678Z,99.99
2017-12-26T08:00:34.231Z,99.99
2017-12-26T08:01:34.230Z,99.99
2017-12-26T08:02:34.398Z,99.99
2017-12-26T08:03:34.303Z,99.99
2017-12-26T08:04:34.509Z,99.99
2017-12-26T08:05:34.646Z,99.99
2017-12-26T08:06:34.698Z,99.99
2017-12-26T08:07:35.760Z,99.99
2017-12-26T08:08:35.451Z,99.99
2017-12-26T08:09:35.405Z,99.99
2017-12-26T08:10:35.276Z,99.99
2017-12-26T08:11:35.556Z,99.99
2017-12-26T08:12:35.915Z,99.99
2017-12-26T08:13:35.605Z,99.99
2017-12-26T08:14:36.005Z,99.99
2017-12-26T08:15:36.023Z,99.99
2017-12-26T08:16:36.175Z,99.99
2017-12-26T08:17:36.634Z,99.99
2017-12-26T08:18:37.005Z,99.99
2017-12-26T08:19:37.777Z,99.99
2017-12-26T08:20:37.798Z,99.99
2017-12-26T08:21:37.509Z,99.99
2017-12-26T08:22:37.919Z,99.99
2017-12-26T08:23:37.673Z,99.99
2017-12-26T08:24:38.075Z,99.99
2017-12-26T08:25:38.171Z,99.99
2017-12-26T08:26:38.147Z,99.99
2017-12-26T08:27:38.275Z,99.99
2017-12-26T08:28:38.285Z,99.99
2017-12-26T08:29:38.308Z,99.99
2017-12-26T08:30:38.312Z,99.99
2017-12-26T08:31:38.477Z,99.99
2017-12-26T08:32:38.769Z,99.99
2017-12-26T08:33:39.147Z,99.99
2017-12-26T08:34:39.050Z,99.99
2017-12-26T08:35:39.668Z,99.99
2017-12-26T08:36:39.693Z,99.99
2017-12-26T08:37:39.708Z,99.99
2017-12-26T08:38:40.128Z,99.99
2017-12-26T08:39:40.277Z,99.99
2017-12-26T08:40:40.254Z,99.99
2017-12-26T08:41:40.660Z,99.99
2017-12-26T08:42:40.695Z,99.99
2017-12-26T08:43:40.808Z,99.99
2017-12-26T08:44:40.960Z,99.99
2017-12-26T08:45:41.135Z,99.99
2017-12-26T08:46:41.281Z,99.99
2017-12-26T08:47:41.281Z,99.99
2017-12-26T08:48:41.452Z,99.99
2017-12-26T08:49:41.276Z,99.99
2017-12-26T08:50:41.438Z,99.99
2017-12-26T08:51:41.988Z,99.99
2017-12-26T08:52:41.745Z,99.99
2017-12-26T08:53:41.500Z,99.99
2017-12-26T08:54:41.921Z,99.99
2017-12-26T08:55:41.942Z,99.99
2017-12-26T08:56:42.800Z,99.99
2017-12-26T08:57:42.292Z,99.99
2017-12-26T08:58:42.592Z,99.99
2017-12-26T08:59:42.314Z,99.99
2017-12-26T09:00:42.820Z,99.99
2017-12-26T09:01:43.641Z,99.99
2017-12-26T09:02:43.528Z,99.99
2017-12-26T09:03:43.755Z,99.99
2017-12-26T09:04:43.806Z,99.99
2017-12-26T09:05:44.175Z,99.99
2017-12-26T09:06:44.257Z,99.99
2017-12-26T09:07:44.910Z,99.99
2017-12-26T09:08:44.856Z,99.99
2017-12-26T09:09:44.866Z,99.99
2017-12-26T09:10:44.934Z,99.99
2017-12-26T09:11:44.957Z,99.99
2017-12-26T09:12:45.466Z,99.99
2017-12-26T09:13:45.516Z,99.99
2017-12-26T09:14:45.471Z,99.99
2017-12-26T09:15:45.476Z,99.99
2017-12-26T09:16:45.805Z,99.99
2017-12-26T09:17:45.833Z,99.99
2017-12-26T09:18:45.852Z,99.99
2017-12-26T09:19:45.894Z,99.99
2017-12-26T09:20:46.325Z,99.99
2017-12-26T09:21:46.720Z,99.99
2017-12-26T09:22:46.773Z,99.99
2017-12-26T09:23:46.766Z,99.99
2017-12-26T09:24:46.810Z,99.99
2017-12-26T09:25:46.980Z,99.99
2017-12-26T09:26:46.960Z,99.99
2017-12-26T09:27:47.150Z,99.99
2017-12-26T09:28:47.190Z,99.99
2017-12-26T09:29:47.319Z,99.99
2017-12-26T09:30:47.484Z,99.99
2017-12-26T09:31:47.523Z,99.99
2017-12-26T09:32:48.366Z,99.99
2017-12-26T09:33:48.403Z,99.99
2017-12-26T09:34:48.782Z,99.99
2017-12-26T09:35:48.320Z,99.99
2017-12-26T09:36:48.291Z,99.99
2017-12-26T09:37:49.055Z,99.99
2017-12-26T09:38:49.018Z,99.99
2017-12-26T09:39:49.464Z,98.88
2017-12-26T09:40:49.932Z,98.22
2017-12-26T09:41:49.985Z,96.26
2017-12-26T09:42:50.265Z,94.79
2017-12-26T09:43:49.957Z,91.6
2017-12-26T09:44:50.118Z,91.22
2017-12-26T09:45:50.462Z,91.89
2017-12-26T09:46:50.433Z,91.22
2017-12-26T09:47:50.626Z,91.41
2017-12-26T09:48:50.485Z,92.22
2017-12-26T09:49:50.548Z,92.51
2017-12-26T09:50:51.135Z,92.99
2017-12-26T09:51:51.045Z,93.37
2017-12-26T09:52:51.055Z,93.84
2017-12-26T09:53:51.318Z,93.08
2017-12-26T09:54:51.552Z,93.27
2017-12-26T09:55:51.521Z,91.7
2017-12-26T09:56:51.863Z,90.5
2017-12-26T09:57:51.835Z,89.46
2017-12-26T09:58:51.969Z,88.26
2017-12-26T09:59:52.596Z,86.93
2017-12-26T10:00:52.157Z,87.16
2017-12-26T10:01:52.477Z,86.44
2017-12-26T10:02:53.041Z,84.48
2017-12-26T10:03:52.723Z,81.9
2017-12-26T10:04:52.430Z,81.18
2017-12-26T10:05:52.742Z,81.14
2017-12-26T10:06:53.421Z,81.62
2017-12-26T10:07:53.152Z,81.81
2017-12-26T10:08:53.227Z,81.9
2017-12-26T10:09:53.252Z,82.53
2017-12-26T10:10:53.253Z,82.34
2017-12-26T10:11:53.259Z,83.06
2017-12-26T10:12:53.371Z,83.73
2017-12-26T10:13:53.877Z,84.2
2017-12-26T10:14:53.376Z,83.78
2017-12-26T10:15:53.659Z,84.92
2017-12-26T10:16:54.131Z,85.88
2017-12-26T10:17:54.414Z,85.41
2017-12-26T10:18:54.480Z,85.78
2017-12-26T10:19:54.222Z,85.31
2017-12-26T10:20:54.667Z,85.12
2017-12-26T10:21:55.052Z,85.78
2017-12-26T10:22:54.815Z,86.69
2017-12-26T10:23:56.206Z,87.36
2017-12-26T10:24:55.435Z,87.84
2017-12-26T10:25:56.054Z,87.74
2017-12-26T10:26:55.890Z,86.22
2017-12-26T10:27:56.631Z,85.5
2017-12-26T10:28:56.453Z,85.02
2017-12-26T10:29:56.475Z,84.4
2017-12-26T10:30:56.582Z,84.4
2017-12-26T10:31:56.254Z,83.64
2017-12-26T10:32:56.719Z,83.06
2017-12-26T10:33:56.657Z,82.15
2017-12-26T10:34:56.982Z,81.1
2017-12-26T10:35:57.218Z,81.67
2017-12-26T10:36:57.220Z,80.47
2017-12-26T10:37:57.610Z,79.71
2017-12-26T10:38:58.025Z,78.94
2017-12-26T10:39:58.055Z,79.14
2017-12-26T10:40:58.098Z,79.33
2017-12-26T10:41:58.098Z,79.43
2017-12-26T10:42:58.258Z,79.85
2017-12-26T10:43:58.568Z,79.36
2017-12-26T10:44:58.716Z,78.13
2017-12-26T10:45:58.477Z,78.13
2017-12-26T10:46:58.772Z,77.78
2017-12-26T10:47:59.137Z,77.5
2017-12-26T10:48:59.174Z,76.45
2017-12-26T10:49:59.341Z,76.25
2017-12-26T10:50:59.247Z,76.57
2017-12-26T10:51:59.260Z,76.2
2017-12-26T10:52:59.724Z,75.62
2017-12-26T10:53:59.774Z,75.43
2017-12-26T10:54:59.474Z,75.66
2017-12-26T10:55:59.787Z,74.41
2017-12-26T10:56:59.540Z,74.45
2017-12-26T10:57:59.865Z,74.16
2017-12-26T10:59:00.226Z,73.34
2017-12-26T11:00:00.352Z,72.29
2017-12-26T11:01:00.638Z,72.38
2017-12-26T11:02:00.694Z,73.44
2017-12-26T11:03:00.444Z,72.67
2017-12-26T11:04:00.465Z,72.42
2017-12-26T11:05:00.496Z,72.71
2017-12-26T11:06:00.798Z,72.42
2017-12-26T11:07:00.889Z,72.94
2017-12-26T11:08:01.197Z,72.71
2017-12-26T11:09:01.447Z,72.71
2017-12-26T11:10:01.342Z,73.47
2017-12-26T11:11:01.483Z,73.57
2017-12-26T11:12:01.847Z,72.42
2017-12-26T11:13:01.875Z,71.08
2017-12-26T11:14:02.263Z,72.03
2017-12-26T11:15:02.683Z,72.58
2017-12-26T11:16:03.113Z,72.38
2017-12-26T11:17:03.281Z,72.96
2017-12-26T11:18:03.615Z,72.09
2017-12-26T11:19:04.038Z,72.58
2017-12-26T11:20:03.838Z,72.96
2017-12-26T11:21:04.258Z,73.38
2017-12-26T11:22:04.269Z,72.42
2017-12-26T11:23:04.281Z,72.03
2017-12-26T11:24:04.382Z,73.09
2017-12-26T11:25:04.410Z,72.52
2017-12-26T11:26:04.396Z,71.27
2017-12-26T11:27:04.426Z,71.75
2017-12-26T11:28:04.273Z,72.45
2017-12-26T11:29:04.863Z,72.03
2017-12-26T11:30:04.875Z,72.32
2017-12-26T11:31:05.019Z,72.42
2017-12-26T11:32:05.028Z,72.71
2017-12-26T11:33:05.207Z,72.58
2017-12-26T11:34:05.214Z,73.54
2017-12-26T11:35:05.259Z,73.34
2017-12-26T11:36:05.584Z,73.3
2017-12-26T11:37:05.485Z,74.2
2017-12-26T11:38:05.349Z,74.4
2017-12-26T11:39:05.811Z,74.49
2017-12-26T11:40:05.593Z,74.4
2017-12-26T11:41:06.278Z,74.2
2017-12-26T11:42:06.292Z,73.34
2017-12-26T11:43:06.044Z,73.34
2017-12-26T11:44:06.323Z,74.55
2017-12-26T11:45:06.874Z,75.41
2017-12-26T11:46:06.602Z,75.79
2017-12-26T11:47:06.991Z,75.79
2017-12-26T11:48:07.000Z,75.56
2017-12-26T11:49:06.753Z,75.85
2017-12-26T11:50:07.263Z,75.51
2017-12-26T11:51:06.966Z,76.33
2017-12-26T11:52:07.623Z,76.52
2017-12-26T11:53:07.779Z,76.62
2017-12-26T11:54:07.936Z,77.15
2017-12-26T11:55:08.405Z,78.83
2017-12-26T11:56:08.870Z,81.37
2017-12-26T11:57:09.239Z,81.95
2017-12-26T11:58:09.058Z,81.85
2017-12-26T11:59:09.478Z,82.42
2017-12-26T12:00:09.501Z,83.34
2017-12-26T12:01:09.747Z,84.06
2017-12-26T12:02:10.561Z,85.25
2017-12-26T12:03:09.601Z,86.49
2017-12-26T12:04:09.517Z,87.21
2017-12-26T12:05:10.061Z,88.26
2017-12-26T12:06:10.229Z,89.12
2017-12-26T12:07:10.400Z,89.07
2017-12-26T12:08:11.089Z,90.5
2017-12-26T12:09:11.614Z,90.7
2017-12-26T12:10:11.537Z,91.46
2017-12-26T12:11:11.536Z,91.94
2017-12-26T12:12:12.031Z,91.89
2017-12-26T12:13:12.500Z,92.55
2017-12-26T12:14:12.274Z,92.46
2017-12-26T12:15:12.441Z,92.74
2017-12-26T12:16:12.547Z,92.84
2017-12-26T12:17:12.812Z,92.55
2017-12-26T12:18:12.561Z,92.74
2017-12-26T12:19:12.688Z,92.55
2017-12-26T12:20:13.132Z,92.65
2017-12-26T12:21:12.990Z,93.13
2017-12-26T12:22:13.401Z,93.13
2017-12-26T12:23:15.000Z,93.13
2017-12-26T12:24:14.628Z,94.17
2017-12-26T12:25:14.661Z,94.08
2017-12-26T12:26:14.866Z,94.27
2017-12-26T12:27:14.891Z,94.46
2017-12-26T12:28:14.633Z,94.74
2017-12-26T12:29:15.576Z,93.98
2017-12-26T12:30:15.096Z,94.65
2017-12-26T12:31:15.100Z,94.84
2017-12-26T12:32:14.857Z,95.22
2017-12-26T12:33:14.909Z,94.74
2017-12-26T12:34:14.967Z,94.6
2017-12-26T12:35:15.430Z,94.84
2017-12-26T12:36:15.243Z,94.6
2017-12-26T12:37:16.168Z,94.22
2017-12-26T12:38:16.240Z,94.7
2017-12-26T12:39:15.896Z,94.79
2017-12-26T12:40:16.463Z,95.08
2017-12-26T12:41:16.677Z,95.56
2017-12-26T12:42:16.350Z,95.36
2017-12-26T12:43:16.648Z,96.22
2017-12-26T12:44:16.410Z,96.12
2017-12-26T12:45:16.736Z,95.36
2017-12-26T12:46:16.777Z,96.31
2017-12-26T12:47:16.751Z,96.89
2017-12-26T12:48:17.067Z,96.79
2017-12-26T12:49:17.583Z,96.31
2017-12-26T12:50:17.649Z,97.46
2017-12-26T12:51:17.832Z,97.93
2017-12-26T12:52:17.909Z,97.65
2017-12-26T12:53:18.123Z,97.93
2017-12-26T12:54:18.144Z,98.03
2017-12-26T12:55:18.094Z,97.93